createdAt,value
2022-10-12T00:02:26.594Z,5.32
2022-10-12T00:05:35.034Z,5.25
2022-10-12T00:08:42.981Z,5.17
2022-10-12T00:11:50.986Z,5.05
2022-10-12T00:14:58.721Z,5.02
2022-10-12T00:18:07.004Z,5.04
2022-10-12T00:21:15.135Z,5.09
2022-10-12T00:24:23.102Z,5.05
2022-10-12T00:27:31.709Z,4.99
2022-10-12T00:30:39.822Z,4.94
2022-10-12T00:33:47.959Z,4.92
2022-10-12T00:36:56.603Z,4.91
2022-10-12T00:40:04.681Z,4.77
2022-10-12T00:43:12.520Z,4.79
2022-10-12T00:46:20.697Z,4.83
2022-10-12T00:49:28.109Z,4.75
2022-10-12T00:52:36.473Z,4.69
2022-10-12T00:55:44.713Z,4.73
2022-10-12T00:58:52.222Z,4.79
2022-10-12T01:02:00.301Z,4.89
2022-10-12T01:05:08.841Z,4.86
2022-10-12T01:08:16.310Z,4.84
2022-10-12T01:11:24.333Z,4.83
2022-10-12T01:14:32.357Z,4.72
2022-10-12T01:17:40.601Z,4.67
2022-10-12T01:20:49.001Z,4.70
2022-10-12T01:23:56.639Z,4.72
2022-10-12T01:27:04.285Z,4.70
2022-10-12T01:30:12.185Z,4.64
2022-10-12T01:33:20.066Z,4.64
2022-10-12T01:36:28.120Z,4.64
2022-10-12T01:39:35.436Z,4.59
2022-10-12T01:42:43.515Z,4.61
2022-10-12T01:45:51.409Z,4.52
2022-10-12T01:48:58.789Z,4.47
2022-10-12T01:52:07.057Z,4.40
2022-10-12T01:55:14.531Z,4.42
2022-10-12T01:58:21.868Z,4.40
2022-10-12T02:01:30.067Z,4.43
2022-10-12T02:04:37.627Z,4.37
2022-10-12T02:07:45.300Z,4.36
2022-10-12T02:10:53.460Z,4.39
2022-10-12T02:14:00.710Z,4.39
2022-10-12T02:17:08.763Z,4.40
2022-10-12T02:20:17.341Z,4.36
2022-10-12T02:23:25.031Z,4.34
2022-10-12T02:26:33.168Z,4.32
2022-10-12T02:29:40.975Z,4.28
2022-10-12T02:32:48.813Z,4.25
2022-10-12T02:35:56.535Z,4.16
2022-10-12T02:39:04.104Z,4.14
2022-10-12T02:42:11.692Z,4.10
2022-10-12T02:45:19.654Z,4.16
2022-10-12T02:48:27.403Z,4.12
2022-10-12T02:51:35.175Z,4.14
2022-10-12T02:54:42.967Z,4.08
2022-10-12T02:57:51.286Z,4.10
2022-10-12T03:00:58.997Z,4.12
2022-10-12T03:04:06.708Z,4.07
2022-10-12T03:07:14.767Z,4.08
2022-10-12T03:10:22.407Z,4.01
2022-10-12T03:13:30.128Z,4.04
2022-10-12T03:16:38.079Z,4.04
2022-10-12T03:19:45.384Z,4.04
2022-10-12T03:22:53.371Z,4.01
2022-10-12T03:26:01.710Z,4.01
2022-10-12T03:29:09.040Z,4.04
2022-10-12T03:32:17.221Z,4.03
2022-10-12T03:35:25.291Z,4.00
2022-10-12T03:38:32.550Z,4.03
2022-10-12T03:41:40.531Z,4.03
2022-10-12T03:44:48.173Z,4.03
2022-10-12T03:47:55.901Z,3.98
2022-10-12T03:51:04.192Z,4.00
2022-10-12T03:54:11.882Z,3.98
2022-10-12T03:57:19.174Z,4.01
2022-10-12T04:00:27.348Z,3.92
2022-10-12T04:03:34.833Z,3.86
2022-10-12T04:06:42.582Z,3.85
2022-10-12T04:09:50.476Z,3.80
2022-10-12T04:12:58.345Z,3.76
2022-10-12T04:16:06.665Z,3.71
2022-10-12T04:19:14.559Z,3.71
2022-10-12T04:22:22.386Z,3.71
2022-10-12T04:25:30.532Z,3.72
2022-10-12T04:28:38.054Z,3.67
2022-10-12T04:31:45.621Z,3.65
2022-10-12T04:34:53.758Z,3.67
2022-10-12T04:38:01.336Z,3.68
2022-10-12T04:41:09.013Z,3.71
2022-10-12T04:44:16.869Z,3.71
2022-10-12T04:47:25.024Z,3.68
2022-10-12T04:50:32.797Z,3.68
2022-10-12T04:53:40.408Z,3.72
2022-10-12T04:56:48.534Z,3.75
2022-10-12T04:59:56.203Z,3.67
2022-10-12T05:03:03.950Z,3.64
2022-10-12T05:06:11.837Z,3.64
2022-10-12T05:09:19.556Z,3.65
2022-10-12T05:12:27.463Z,3.64
2022-10-12T05:15:35.243Z,3.65
2022-10-12T05:18:43.183Z,3.72
2022-10-12T05:21:51.315Z,3.76
2022-10-12T05:24:59.173Z,3.79
2022-10-12T05:28:06.921Z,3.80
2022-10-12T05:31:15.204Z,3.86
2022-10-12T05:34:23.186Z,3.86
2022-10-12T05:37:30.900Z,3.90
2022-10-12T05:40:38.859Z,3.92
2022-10-12T05:43:46.714Z,3.96
2022-10-12T05:46:54.354Z,3.90
2022-10-12T05:50:02.218Z,4.01
2022-10-12T05:53:09.530Z,4.01
2022-10-12T05:56:17.406Z,4.00
2022-10-12T05:59:25.681Z,3.98
2022-10-12T06:02:33.062Z,4.01
2022-10-12T06:05:41.361Z,4.10
2022-10-12T06:08:49.601Z,4.18
2022-10-12T06:11:57.002Z,4.26
2022-10-12T06:15:05.341Z,4.22
2022-10-12T06:18:12.903Z,4.32
2022-10-12T06:21:32.876Z,4.36
2022-10-12T06:24:26.033Z,4.43
2022-10-12T06:27:33.943Z,4.50
2022-10-12T06:30:41.558Z,4.58
2022-10-12T06:33:49.556Z,4.65
2022-10-12T06:37:01.644Z,4.75
2022-10-12T06:39:59.095Z,4.83
2022-10-12T06:43:06.795Z,4.91
2022-10-12T06:46:14.857Z,4.99
2022-10-12T06:49:22.566Z,5.04
2022-10-12T06:52:30.258Z,5.09
2022-10-12T06:55:38.390Z,5.16
2022-10-12T06:58:46.821Z,5.22
2022-10-12T07:01:54.945Z,5.35
2022-10-12T07:05:02.888Z,5.41
2022-10-12T07:08:11.028Z,5.49
2022-10-12T07:11:18.986Z,5.50
2022-10-12T07:14:26.810Z,5.55
2022-10-12T07:17:34.424Z,5.64
2022-10-12T07:20:42.832Z,5.75
2022-10-12T07:23:51.241Z,5.85
2022-10-12T07:26:58.507Z,6.03
2022-10-12T07:30:06.574Z,6.26
2022-10-12T07:33:14.343Z,6.48
2022-10-12T07:36:22.302Z,6.72
2022-10-12T07:39:31.474Z,6.95
2022-10-12T07:42:59.178Z,7.16
2022-10-12T07:45:44.566Z,7.38
2022-10-12T07:48:52.424Z,7.60
2022-10-12T07:51:59.846Z,7.81
2022-10-12T07:55:07.858Z,8.10
2022-10-12T07:58:15.866Z,8.33
2022-10-12T08:01:23.351Z,8.54
2022-10-12T08:04:31.483Z,8.76
2022-10-12T08:07:39.436Z,8.87
2022-10-12T08:10:47.247Z,8.93
2022-10-12T08:13:55.280Z,9.01
2022-10-12T08:17:03.877Z,9.12
2022-10-12T08:20:12.254Z,9.27
2022-10-12T08:23:21.211Z,9.43
2022-10-12T08:26:29.248Z,9.60
2022-10-12T08:29:36.899Z,9.71
2022-10-12T08:32:45.118Z,9.79
2022-10-12T08:35:52.955Z,9.88
2022-10-12T08:39:00.582Z,10.00
2022-10-12T08:42:09.434Z,10.10
2022-10-12T08:45:17.805Z,10.26
2022-10-12T08:48:25.605Z,10.39
2022-10-12T08:51:32.950Z,10.52
2022-10-12T08:54:41.077Z,10.68
2022-10-12T08:57:50.032Z,10.76
2022-10-12T09:00:57.929Z,10.89
2022-10-12T09:04:05.897Z,10.95
2022-10-12T09:07:13.209Z,11.03
2022-10-12T09:10:21.148Z,11.13
2022-10-12T09:13:29.391Z,11.20
2022-10-12T09:16:36.731Z,11.29
2022-10-12T09:19:44.840Z,11.39
2022-10-12T09:22:52.852Z,11.50
2022-10-12T09:26:00.253Z,11.67
2022-10-12T09:29:08.077Z,11.80
2022-10-12T09:32:15.652Z,11.93
2022-10-12T09:35:23.402Z,11.97
2022-10-12T09:38:31.306Z,12.05
2022-10-12T09:41:39.057Z,12.16
2022-10-12T09:44:46.836Z,12.26
2022-10-12T09:47:54.778Z,12.29
2022-10-12T09:51:02.551Z,12.38
2022-10-12T09:54:10.250Z,12.45
2022-10-12T09:57:18.021Z,12.54
2022-10-12T10:00:26.312Z,12.75
2022-10-12T10:03:34.169Z,12.85
2022-10-12T10:06:41.944Z,12.96
2022-10-12T10:09:50.084Z,13.07
2022-10-12T10:12:57.435Z,13.14
2022-10-12T10:16:05.655Z,13.30
2022-10-12T10:19:13.829Z,13.49
2022-10-12T10:22:21.128Z,13.62
2022-10-12T10:25:29.134Z,13.76
2022-10-12T10:28:37.602Z,13.84
2022-10-12T10:31:44.870Z,13.91
2022-10-12T10:34:53.009Z,13.98
2022-10-12T10:38:01.282Z,14.02
2022-10-12T10:41:08.641Z,14.06
2022-10-12T10:44:21.635Z,14.10
2022-10-12T10:47:18.822Z,14.28
2022-10-12T10:50:26.457Z,14.37
2022-10-12T10:53:34.564Z,14.53
2022-10-12T10:56:42.426Z,14.62
2022-10-12T10:59:50.185Z,14.69
2022-10-12T11:02:57.777Z,14.74
2022-10-12T11:06:06.066Z,14.91
2022-10-12T11:09:13.932Z,14.99
2022-10-12T11:12:21.339Z,15.05
2022-10-12T11:15:29.551Z,15.15
2022-10-12T11:18:37.592Z,15.31
2022-10-12T11:21:45.691Z,15.33
2022-10-12T11:24:54.297Z,15.31
2022-10-12T11:28:02.144Z,15.31
2022-10-12T11:31:10.635Z,15.36
2022-10-12T11:34:19.109Z,15.36
2022-10-12T11:37:26.829Z,15.45
2022-10-12T11:41:02.607Z,15.61
2022-10-12T11:43:39.936Z,15.63
2022-10-12T11:46:47.250Z,15.61
2022-10-12T11:49:55.509Z,15.67
2022-10-12T11:53:03.332Z,15.76
2022-10-12T11:56:11.059Z,15.94
2022-10-12T11:59:18.924Z,15.97
2022-10-12T12:02:26.552Z,16.06
2022-10-12T12:05:34.386Z,16.04
2022-10-12T12:08:42.577Z,16.18
2022-10-12T12:11:50.705Z,16.31
2022-10-12T12:14:58.993Z,16.34
2022-10-12T12:18:06.753Z,16.41
2022-10-12T12:21:15.043Z,16.38
2022-10-12T12:24:22.968Z,16.23
2022-10-12T12:27:30.733Z,16.04
2022-10-12T12:30:38.731Z,16.12
2022-10-12T12:33:46.749Z,16.23
2022-10-12T12:36:54.419Z,16.40
2022-10-12T12:40:02.981Z,16.63
2022-10-12T12:43:11.254Z,16.67
2022-10-12T12:46:18.982Z,16.55
2022-10-12T12:49:27.435Z,16.42
2022-10-12T12:52:35.446Z,16.35
2022-10-12T12:55:43.654Z,16.27
2022-10-12T12:58:51.924Z,16.27
2022-10-12T13:01:59.695Z,16.27
2022-10-12T13:05:08.370Z,16.15
2022-10-12T13:08:16.652Z,16.11
2022-10-12T13:11:24.598Z,16.06
2022-10-12T13:14:33.183Z,16.07
2022-10-12T13:17:41.527Z,16.03
2022-10-12T13:20:49.645Z,16.07
2022-10-12T13:23:58.115Z,16.18
2022-10-12T13:27:06.111Z,16.23
2022-10-12T13:30:14.102Z,16.22
2022-10-12T13:33:22.086Z,16.20
2022-10-12T13:36:30.710Z,16.22
2022-10-12T13:39:38.827Z,16.14
2022-10-12T13:42:46.895Z,16.09
2022-10-12T13:45:55.460Z,16.03
2022-10-12T13:49:03.575Z,15.93
2022-10-12T13:52:11.814Z,15.88
2022-10-12T13:55:20.148Z,15.85
2022-10-12T13:58:27.796Z,15.84
2022-10-12T14:01:35.829Z,15.75
2022-10-12T14:04:44.445Z,15.70
2022-10-12T14:07:52.101Z,15.72
2022-10-12T14:11:00.500Z,15.68
2022-10-12T14:14:09.090Z,15.67
2022-10-12T14:17:16.850Z,15.68
2022-10-12T14:20:25.293Z,15.72
2022-10-12T14:23:32.961Z,15.75
2022-10-12T14:26:41.375Z,15.76
2022-10-12T14:29:49.837Z,15.79
2022-10-12T14:32:59.821Z,15.81
2022-10-12T14:36:08.040Z,15.75
2022-10-12T14:39:16.387Z,15.63
2022-10-12T14:42:23.889Z,15.51
2022-10-12T14:45:32.391Z,15.33
2022-10-12T14:48:40.848Z,15.13
2022-10-12T14:51:48.624Z,15.01
2022-10-12T14:54:57.299Z,14.98
2022-10-12T14:58:05.301Z,15.08
2022-10-12T15:01:13.351Z,15.21
2022-10-12T15:04:22.014Z,15.21
2022-10-12T15:07:30.075Z,15.06
2022-10-12T15:10:38.188Z,14.84
2022-10-12T15:13:46.699Z,14.69
2022-10-12T15:16:54.957Z,14.47
2022-10-12T15:20:03.119Z,14.31
2022-10-12T15:23:11.810Z,14.19
2022-10-12T15:26:19.750Z,14.02
2022-10-12T15:29:27.610Z,13.92
2022-10-12T15:32:35.672Z,13.87
2022-10-12T15:35:44.224Z,13.84
2022-10-12T15:38:51.821Z,13.81
2022-10-12T15:42:00.157Z,13.80
2022-10-12T15:45:08.644Z,13.80
2022-10-12T15:48:16.784Z,13.80
2022-10-12T15:51:24.830Z,13.79
2022-10-12T15:54:33.008Z,13.77
2022-10-12T15:57:40.640Z,13.71
2022-10-12T16:00:49.135Z,13.71
2022-10-12T16:03:57.872Z,13.63
2022-10-12T16:07:05.600Z,13.52
2022-10-12T16:10:14.082Z,13.38
2022-10-12T16:13:22.584Z,13.22
2022-10-12T16:16:30.230Z,13.07
2022-10-12T16:19:38.582Z,12.93
2022-10-12T16:22:46.643Z,12.78
2022-10-12T16:25:54.667Z,12.63
2022-10-12T16:29:03.107Z,12.42
2022-10-12T16:32:11.127Z,12.29
2022-10-12T16:35:18.928Z,12.15
2022-10-12T16:38:27.431Z,12.01
2022-10-12T16:41:35.417Z,11.87
2022-10-12T16:44:43.356Z,11.74
2022-10-12T16:47:51.783Z,11.64
2022-10-12T16:50:59.603Z,11.53
2022-10-12T16:54:07.452Z,11.34
2022-10-12T16:57:15.635Z,11.20
2022-10-12T17:00:23.739Z,11.09
2022-10-12T17:03:31.812Z,10.99
2022-10-12T17:06:39.282Z,10.92
2022-10-12T17:09:47.188Z,10.80
2022-10-12T17:12:54.988Z,10.70
2022-10-12T17:16:02.813Z,10.58
2022-10-12T17:22:01.597Z,10.46
2022-10-12T17:25:10.003Z,10.33
2022-10-12T17:28:18.294Z,10.21
2022-10-12T17:31:26.470Z,10.17
2022-10-12T17:34:35.005Z,10.14
2022-10-12T17:37:42.774Z,10.06
2022-10-12T17:40:53.111Z,10.00
2022-10-12T17:44:01.284Z,9.91
2022-10-12T17:47:09.369Z,9.76
2022-10-12T17:50:16.941Z,9.73
2022-10-12T17:53:24.586Z,9.68
2022-10-12T17:56:32.767Z,9.68
2022-10-12T17:59:41.269Z,9.67
2022-10-12T18:02:49.307Z,9.68
2022-10-12T18:05:57.239Z,9.73
2022-10-12T18:09:06.501Z,9.79
2022-10-12T18:12:15.013Z,9.88
2022-10-12T18:15:24.085Z,9.93
2022-10-12T18:18:32.671Z,9.96
2022-10-12T18:21:41.426Z,9.97
2022-10-12T18:24:49.911Z,10.00
2022-10-12T18:27:58.465Z,10.03
2022-10-12T18:31:07.148Z,10.03
2022-10-12T18:34:17.673Z,10.03
2022-10-12T18:37:27.697Z,10.07
2022-10-12T18:40:27.389Z,10.06
2022-10-12T18:43:27.898Z,10.03
2022-10-12T18:46:29.261Z,10.03
2022-10-12T18:49:39.209Z,10.01
2022-10-12T18:52:49.123Z,10.00
2022-10-12T18:55:54.574Z,10.01
2022-10-12T18:58:55.654Z,10.00
2022-10-12T19:01:55.835Z,9.94
2022-10-12T19:05:06.136Z,9.82
2022-10-12T19:08:08.595Z,9.70
2022-10-12T19:11:18.500Z,9.57
2022-10-12T19:15:07.135Z,9.46
2022-10-12T19:18:08.865Z,9.42
2022-10-12T19:21:09.050Z,9.48
2022-10-12T19:24:09.469Z,9.50
2022-10-12T19:27:20.529Z,9.48
2022-10-12T19:30:29.391Z,9.43
2022-10-12T19:33:39.379Z,9.42
2022-10-12T19:36:48.010Z,9.34
2022-10-12T19:39:56.160Z,9.25
2022-10-12T19:43:05.792Z,9.18
2022-10-12T19:46:13.422Z,9.10
2022-10-12T19:49:22.135Z,9.02
2022-10-12T19:52:31.404Z,8.94
2022-10-12T19:55:31.046Z,8.86
2022-10-12T19:58:40.604Z,8.79
2022-10-12T20:01:49.177Z,8.73
2022-10-12T20:04:57.793Z,8.60
2022-10-12T20:08:07.016Z,8.54
2022-10-12T20:11:04.182Z,8.51
2022-10-12T20:14:12.436Z,8.50
2022-10-12T20:17:21.119Z,8.50
2022-10-12T20:20:29.242Z,8.51
2022-10-12T20:23:37.278Z,8.53
2022-10-12T20:26:45.621Z,8.50
2022-10-12T20:29:54.010Z,8.48
2022-10-12T20:33:01.591Z,8.50
2022-10-12T20:36:09.273Z,8.51
2022-10-12T20:39:17.672Z,8.51
2022-10-12T20:42:25.774Z,8.51
2022-10-12T20:45:34.739Z,8.50
2022-10-12T20:48:42.443Z,8.47
2022-10-12T20:51:50.033Z,8.47
2022-10-12T20:54:57.873Z,8.47
2022-10-12T20:58:05.095Z,8.53
2022-10-12T21:01:13.412Z,8.66
2022-10-12T21:04:21.328Z,8.81
2022-10-12T21:07:29.384Z,8.96
2022-10-12T21:10:40.112Z,9.09
2022-10-12T21:13:48.499Z,9.21
2022-10-12T21:16:56.454Z,9.24
2022-10-12T21:20:04.177Z,9.20
2022-10-12T21:23:12.481Z,9.13
2022-10-12T21:26:19.822Z,9.10
2022-10-12T21:29:27.710Z,9.06
2022-10-12T21:32:36.071Z,9.01
2022-10-12T21:35:43.292Z,8.96
2022-10-12T21:38:51.523Z,8.94
2022-10-12T21:41:59.545Z,8.99
2022-10-12T21:45:06.826Z,9.12
2022-10-12T21:48:14.795Z,9.21
2022-10-12T21:51:23.103Z,9.25
2022-10-12T21:54:30.544Z,9.25
2022-10-12T21:57:38.618Z,9.24
2022-10-12T22:00:46.312Z,9.21
2022-10-12T22:03:54.007Z,9.21
2022-10-12T22:07:02.077Z,9.18
2022-10-12T22:10:09.829Z,9.10
2022-10-12T22:13:17.710Z,9.06
2022-10-12T22:16:25.937Z,9.01
2022-10-12T22:19:27.440Z,8.91
2022-10-12T22:22:35.201Z,8.84
2022-10-12T22:25:43.553Z,8.76
2022-10-12T22:28:51.127Z,8.76
2022-10-12T22:31:58.782Z,8.76
2022-10-12T22:35:07.134Z,8.78
2022-10-12T22:38:14.831Z,8.81
2022-10-12T22:41:22.684Z,8.87
2022-10-12T22:44:30.527Z,8.91
2022-10-12T22:47:38.333Z,8.93
2022-10-12T22:50:46.584Z,8.94
2022-10-12T22:53:54.499Z,9.01
2022-10-12T22:57:02.480Z,9.01
2022-10-12T23:00:10.666Z,8.99
2022-10-12T23:03:18.252Z,9.02
2022-10-12T23:06:26.093Z,9.05
2022-10-12T23:09:34.451Z,9.06
2022-10-12T23:12:42.389Z,9.04
2022-10-12T23:15:50.246Z,9.02
2022-10-12T23:18:59.462Z,9.02
2022-10-12T23:22:07.915Z,8.99
2022-10-12T23:25:15.777Z,8.91
2022-10-12T23:28:23.503Z,8.86
2022-10-12T23:31:31.687Z,8.84
2022-10-12T23:34:38.960Z,8.79
2022-10-12T23:37:47.172Z,8.75
2022-10-12T23:40:55.239Z,8.68
2022-10-12T23:44:02.790Z,8.63
2022-10-12T23:47:11.107Z,8.55
2022-10-12T23:50:18.981Z,8.55
2022-10-12T23:53:26.681Z,8.48
2022-10-12T23:56:35.074Z,8.44
2022-10-12T23:59:42.998Z,8.36
